sensor_id;sensor_type;location;lat;lon;timestamp;temperature;humidity
46217;DHT22;47258;59.424;13.482;2022-11-15T00:01:15;8.00;99.90
46217;DHT22;47258;59.424;13.482;2022-11-15T00:03:43;8.00;99.90
46217;DHT22;47258;59.424;13.482;2022-11-15T00:06:12;7.90;99.90
46217;DHT22;47258;59.424;13.482;2022-11-15T00:08:38;7.90;99.90
46217;DHT22;47258;59.424;13.482;2022-11-15T00:11:05;7.90;99.90
46217;DHT22;47258;59.424;13.482;2022-11-15T00:13:32;7.90;99.90
46217;DHT22;47258;59.424;13.482;2022-11-15T00:16:00;7.90;99.90
46217;DHT22;47258;59.424;13.482;2022-11-15T00:18:28;7.90;99.90
46217;DHT22;47258;59.424;13.482;2022-11-15T00:20:56;7.90;99.90
46217;DHT22;47258;59.424;13.482;2022-11-15T00:23:24;7.90;99.90
46217;DHT22;47258;59.424;13.482;2022-11-15T00:25:56;7.90;99.90
46217;DHT22;47258;59.424;13.482;2022-11-15T00:28:23;7.80;99.90
46217;DHT22;47258;59.424;13.482;2022-11-15T00:30:50;7.80;99.90
46217;DHT22;47258;59.424;13.482;2022-11-15T00:33:17;7.80;99.90
46217;DHT22;47258;59.424;13.482;2022-11-15T00:35:44;7.80;99.90
46217;DHT22;47258;59.424;13.482;2022-11-15T00:38:11;7.80;99.90
46217;DHT22;47258;59.424;13.482;2022-11-15T00:40:39;7.70;99.90
46217;DHT22;47258;59.424;13.482;2022-11-15T00:43:06;7.70;99.90
46217;DHT22;47258;59.424;13.482;2022-11-15T00:45:33;7.70;99.90
46217;DHT22;47258;59.424;13.482;2022-11-15T00:48:00;7.60;99.90
46217;DHT22;47258;59.424;13.482;2022-11-15T00:50:27;7.60;99.90
46217;DHT22;47258;59.424;13.482;2022-11-15T00:52:54;7.60;99.90
46217;DHT22;47258;59.424;13.482;2022-11-15T00:55:21;7.60;99.90
46217;DHT22;47258;59.424;13.482;2022-11-15T00:57:49;7.70;99.90
46217;DHT22;47258;59.424;13.482;2022-11-15T01:00:17;7.70;99.90
46217;DHT22;47258;59.424;13.482;2022-11-15T01:02:43;7.70;99.90
46217;DHT22;47258;59.424;13.482;2022-11-15T01:05:10;7.70;99.90
46217;DHT22;47258;59.424;13.482;2022-11-15T01:07:37;7.70;99.90
46217;DHT22;47258;59.424;13.482;2022-11-15T01:10:05;7.70;99.90
46217;DHT22;47258;59.424;13.482;2022-11-15T01:12:32;7.60;99.90
46217;DHT22;47258;59.424;13.482;2022-11-15T01:15:00;7.60;99.90
46217;DHT22;47258;59.424;13.482;2022-11-15T01:17:27;7.60;99.90
46217;DHT22;47258;59.424;13.482;2022-11-15T01:19:54;7.60;99.90
46217;DHT22;47258;59.424;13.482;2022-11-15T01:22:22;7.70;99.90
46217;DHT22;47258;59.424;13.482;2022-11-15T01:24:49;7.70;99.90
46217;DHT22;47258;59.424;13.482;2022-11-15T01:27:17;7.70;99.90
46217;DHT22;47258;59.424;13.482;2022-11-15T01:29:43;7.70;99.90
46217;DHT22;47258;59.424;13.482;2022-11-15T01:32:12;7.70;99.90
46217;DHT22;47258;59.424;13.482;2022-11-15T01:34:39;7.80;99.90
46217;DHT22;47258;59.424;13.482;2022-11-15T01:37:06;7.70;99.90
46217;DHT22;47258;59.424;13.482;2022-11-15T01:39:33;7.80;99.90
46217;DHT22;47258;59.424;13.482;2022-11-15T01:41:59;7.80;99.90
46217;DHT22;47258;59.424;13.482;2022-11-15T01:44:39;7.80;99.90
46217;DHT22;47258;59.424;13.482;2022-11-15T01:47:12;7.80;99.90
46217;DHT22;47258;59.424;13.482;2022-11-15T01:49:51;7.80;99.90
46217;DHT22;47258;59.424;13.482;2022-11-15T01:52:21;7.80;99.90
46217;DHT22;47258;59.424;13.482;2022-11-15T01:54:49;7.80;99.90
46217;DHT22;47258;59.424;13.482;2022-11-15T01:57:17;7.80;99.90
46217;DHT22;47258;59.424;13.482;2022-11-15T01:59:45;7.70;99.90
46217;DHT22;47258;59.424;13.482;2022-11-15T02:02:13;7.80;99.90
46217;DHT22;47258;59.424;13.482;2022-11-15T02:04:42;7.80;99.90
46217;DHT22;47258;59.424;13.482;2022-11-15T02:07:11;7.80;99.90
46217;DHT22;47258;59.424;13.482;2022-11-15T02:09:40;7.80;99.90
46217;DHT22;47258;59.424;13.482;2022-11-15T02:12:08;7.80;99.90
46217;DHT22;47258;59.424;13.482;2022-11-15T02:14:38;7.80;99.90
46217;DHT22;47258;59.424;13.482;2022-11-15T02:17:09;7.70;99.90
46217;DHT22;47258;59.424;13.482;2022-11-15T02:23:04;7.70;99.90
46217;DHT22;47258;59.424;13.482;2022-11-15T02:25:41;7.70;99.90
46217;DHT22;47258;59.424;13.482;2022-11-15T02:28:31;7.60;99.90
46217;DHT22;47258;59.424;13.482;2022-11-15T02:31:04;7.60;99.90
46217;DHT22;47258;59.424;13.482;2022-11-15T02:33:38;7.60;99.90
46217;DHT22;47258;59.424;13.482;2022-11-15T02:36:11;7.60;99.90
46217;DHT22;47258;59.424;13.482;2022-11-15T02:38:46;7.60;99.90
46217;DHT22;47258;59.424;13.482;2022-11-15T02:41:17;7.70;99.90
46217;DHT22;47258;59.424;13.482;2022-11-15T02:43:50;7.70;99.90
46217;DHT22;47258;59.424;13.482;2022-11-15T02:46:27;7.70;99.90
46217;DHT22;47258;59.424;13.482;2022-11-15T02:49:09;7.60;99.90
46217;DHT22;47258;59.424;13.482;2022-11-15T02:51:37;7.60;99.90
46217;DHT22;47258;59.424;13.482;2022-11-15T02:54:04;7.60;99.90
46217;DHT22;47258;59.424;13.482;2022-11-15T02:56:31;7.50;99.90
46217;DHT22;47258;59.424;13.482;2022-11-15T02:59:13;7.50;99.90
46217;DHT22;47258;59.424;13.482;2022-11-15T03:01:56;7.50;99.90
46217;DHT22;47258;59.424;13.482;2022-11-15T03:04:36;7.50;99.90
46217;DHT22;47258;59.424;13.482;2022-11-15T03:07:07;7.40;99.90
46217;DHT22;47258;59.424;13.482;2022-11-15T03:09:40;7.40;99.90
46217;DHT22;47258;59.424;13.482;2022-11-15T03:12:14;7.40;99.90
46217;DHT22;47258;59.424;13.482;2022-11-15T03:14:51;7.30;99.90
46217;DHT22;47258;59.424;13.482;2022-11-15T03:17:23;7.30;99.90
46217;DHT22;47258;59.424;13.482;2022-11-15T03:19:54;7.30;99.90
46217;DHT22;47258;59.424;13.482;2022-11-15T03:22:25;7.30;99.90
46217;DHT22;47258;59.424;13.482;2022-11-15T03:24:57;7.30;99.90
46217;DHT22;47258;59.424;13.482;2022-11-15T03:27:30;7.20;99.90
46217;DHT22;47258;59.424;13.482;2022-11-15T03:30:02;7.20;99.90
46217;DHT22;47258;59.424;13.482;2022-11-15T03:32:34;7.10;99.90
46217;DHT22;47258;59.424;13.482;2022-11-15T03:35:05;7.10;99.90
46217;DHT22;47258;59.424;13.482;2022-11-15T03:37:36;7.10;99.90
46217;DHT22;47258;59.424;13.482;2022-11-15T03:40:05;7.10;99.90
46217;DHT22;47258;59.424;13.482;2022-11-15T03:42:37;7.00;99.90
46217;DHT22;47258;59.424;13.482;2022-11-15T03:45:10;7.00;99.90
46217;DHT22;47258;59.424;13.482;2022-11-15T03:47:44;6.90;99.90
46217;DHT22;47258;59.424;13.482;2022-11-15T03:50:14;6.90;99.90
46217;DHT22;47258;59.424;13.482;2022-11-15T03:52:43;6.80;99.90
46217;DHT22;47258;59.424;13.482;2022-11-15T03:55:14;6.80;99.90
46217;DHT22;47258;59.424;13.482;2022-11-15T03:57:42;6.70;99.90
46217;DHT22;47258;59.424;13.482;2022-11-15T04:00:10;6.70;99.90
46217;DHT22;47258;59.424;13.482;2022-11-15T04:02:37;6.70;99.90
46217;DHT22;47258;59.424;13.482;2022-11-15T04:05:06;6.60;99.90
46217;DHT22;47258;59.424;13.482;2022-11-15T04:07:34;6.60;99.90
46217;DHT22;47258;59.424;13.482;2022-11-15T04:10:01;6.50;99.90
46217;DHT22;47258;59.424;13.482;2022-11-15T04:12:31;6.50;99.90
46217;DHT22;47258;59.424;13.482;2022-11-15T04:15:00;6.40;99.90
46217;DHT22;47258;59.424;13.482;2022-11-15T04:17:35;6.30;99.90
46217;DHT22;47258;59.424;13.482;2022-11-15T04:20:03;6.30;99.90
46217;DHT22;47258;59.424;13.482;2022-11-15T04:22:49;6.30;99.90
46217;DHT22;47258;59.424;13.482;2022-11-15T04:25:35;6.20;99.90
46217;DHT22;47258;59.424;13.482;2022-11-15T04:28:03;6.20;99.90
46217;DHT22;47258;59.424;13.482;2022-11-15T04:30:29;6.20;99.90
46217;DHT22;47258;59.424;13.482;2022-11-15T04:32:56;6.20;99.90
46217;DHT22;47258;59.424;13.482;2022-11-15T04:35:23;6.20;99.90
46217;DHT22;47258;59.424;13.482;2022-11-15T04:37:51;6.20;99.90
46217;DHT22;47258;59.424;13.482;2022-11-15T04:40:18;6.20;99.90
46217;DHT22;47258;59.424;13.482;2022-11-15T04:42:44;6.20;99.90
46217;DHT22;47258;59.424;13.482;2022-11-15T04:45:11;6.10;99.90
46217;DHT22;47258;59.424;13.482;2022-11-15T04:47:38;6.10;99.90
46217;DHT22;47258;59.424;13.482;2022-11-15T04:50:06;6.10;99.90
46217;DHT22;47258;59.424;13.482;2022-11-15T04:52:33;6.10;99.90
46217;DHT22;47258;59.424;13.482;2022-11-15T04:55:01;6.10;99.90
46217;DHT22;47258;59.424;13.482;2022-11-15T04:57:28;6.00;99.90
46217;DHT22;47258;59.424;13.482;2022-11-15T04:59:55;6.10;99.90
46217;DHT22;47258;59.424;13.482;2022-11-15T05:02:22;6.10;99.90
46217;DHT22;47258;59.424;13.482;2022-11-15T05:04:49;6.00;99.90
46217;DHT22;47258;59.424;13.482;2022-11-15T05:07:15;6.00;99.90
46217;DHT22;47258;59.424;13.482;2022-11-15T05:09:42;6.00;99.90
46217;DHT22;47258;59.424;13.482;2022-11-15T05:12:10;6.00;99.90
46217;DHT22;47258;59.424;13.482;2022-11-15T05:14:37;5.90;99.90
46217;DHT22;47258;59.424;13.482;2022-11-15T05:17:04;5.90;99.90
46217;DHT22;47258;59.424;13.482;2022-11-15T05:19:31;5.90;99.90
46217;DHT22;47258;59.424;13.482;2022-11-15T05:21:57;5.90;99.90
46217;DHT22;47258;59.424;13.482;2022-11-15T05:24:24;5.90;99.90
46217;DHT22;47258;59.424;13.482;2022-11-15T05:26:51;5.80;99.90
46217;DHT22;47258;59.424;13.482;2022-11-15T05:29:20;5.80;99.90
46217;DHT22;47258;59.424;13.482;2022-11-15T05:31:46;5.80;99.90
46217;DHT22;47258;59.424;13.482;2022-11-15T05:34:13;5.70;99.90
46217;DHT22;47258;59.424;13.482;2022-11-15T05:36:42;5.70;99.90
46217;DHT22;47258;59.424;13.482;2022-11-15T05:39:10;5.70;99.90
46217;DHT22;47258;59.424;13.482;2022-11-15T05:41:40;5.70;99.90
46217;DHT22;47258;59.424;13.482;2022-11-15T05:44:10;5.70;99.90
46217;DHT22;47258;59.424;13.482;2022-11-15T05:46:40;5.60;99.90
46217;DHT22;47258;59.424;13.482;2022-11-15T05:49:12;5.60;99.90
46217;DHT22;47258;59.424;13.482;2022-11-15T05:51:40;5.60;99.90
46217;DHT22;47258;59.424;13.482;2022-11-15T05:54:07;5.60;99.90
46217;DHT22;47258;59.424;13.482;2022-11-15T05:56:34;5.50;99.90
46217;DHT22;47258;59.424;13.482;2022-11-15T05:59:01;5.50;99.90
46217;DHT22;47258;59.424;13.482;2022-11-15T06:01:28;5.50;99.90
46217;DHT22;47258;59.424;13.482;2022-11-15T06:03:57;5.50;99.90
46217;DHT22;47258;59.424;13.482;2022-11-15T06:06:24;5.50;99.90
46217;DHT22;47258;59.424;13.482;2022-11-15T06:08:51;5.50;99.90
46217;DHT22;47258;59.424;13.482;2022-11-15T06:11:18;5.50;99.90
46217;DHT22;47258;59.424;13.482;2022-11-15T06:13:45;5.50;99.90
46217;DHT22;47258;59.424;13.482;2022-11-15T06:16:11;5.50;99.90
46217;DHT22;47258;59.424;13.482;2022-11-15T06:18:38;5.60;99.90
46217;DHT22;47258;59.424;13.482;2022-11-15T06:21:07;5.60;99.90
46217;DHT22;47258;59.424;13.482;2022-11-15T06:23:34;5.50;99.90
46217;DHT22;47258;59.424;13.482;2022-11-15T06:26:02;5.50;99.90
46217;DHT22;47258;59.424;13.482;2022-11-15T06:28:29;5.50;99.90
46217;DHT22;47258;59.424;13.482;2022-11-15T06:31:02;5.50;99.90
46217;DHT22;47258;59.424;13.482;2022-11-15T06:33:29;5.50;99.90
46217;DHT22;47258;59.424;13.482;2022-11-15T06:36:00;5.50;99.90
46217;DHT22;47258;59.424;13.482;2022-11-15T06:38:28;5.50;99.90
46217;DHT22;47258;59.424;13.482;2022-11-15T06:41:00;5.50;99.90
46217;DHT22;47258;59.424;13.482;2022-11-15T06:43:27;5.60;99.90
46217;DHT22;47258;59.424;13.482;2022-11-15T06:45:54;5.60;99.90
46217;DHT22;47258;59.424;13.482;2022-11-15T06:48:21;5.60;99.90
46217;DHT22;47258;59.424;13.482;2022-11-15T06:50:50;5.60;99.90
46217;DHT22;47258;59.424;13.482;2022-11-15T06:53:17;5.60;99.90
46217;DHT22;47258;59.424;13.482;2022-11-15T06:55:46;5.60;99.90
46217;DHT22;47258;59.424;13.482;2022-11-15T06:58:13;5.60;99.90
46217;DHT22;47258;59.424;13.482;2022-11-15T07:00:40;5.60;99.90
46217;DHT22;47258;59.424;13.482;2022-11-15T07:03:07;5.60;99.90
46217;DHT22;47258;59.424;13.482;2022-11-15T07:05:34;5.60;99.90
46217;DHT22;47258;59.424;13.482;2022-11-15T07:08:01;5.60;99.90
46217;DHT22;47258;59.424;13.482;2022-11-15T07:10:29;5.60;99.90
46217;DHT22;47258;59.424;13.482;2022-11-15T07:12:57;5.70;99.90
46217;DHT22;47258;59.424;13.482;2022-11-15T07:15:25;5.70;99.90
46217;DHT22;47258;59.424;13.482;2022-11-15T07:17:52;5.70;99.90
46217;DHT22;47258;59.424;13.482;2022-11-15T07:20:19;5.70;99.90
46217;DHT22;47258;59.424;13.482;2022-11-15T07:22:46;5.70;99.90
46217;DHT22;47258;59.424;13.482;2022-11-15T07:25:13;5.70;99.90
46217;DHT22;47258;59.424;13.482;2022-11-15T07:27:40;5.70;99.90
46217;DHT22;47258;59.424;13.482;2022-11-15T07:30:09;5.70;99.90
46217;DHT22;47258;59.424;13.482;2022-11-15T07:32:36;5.80;99.90
46217;DHT22;47258;59.424;13.482;2022-11-15T07:35:04;5.80;99.90
46217;DHT22;47258;59.424;13.482;2022-11-15T07:37:31;5.80;99.90
46217;DHT22;47258;59.424;13.482;2022-11-15T07:39:57;5.80;99.90
46217;DHT22;47258;59.424;13.482;2022-11-15T07:42:24;5.80;99.90
46217;DHT22;47258;59.424;13.482;2022-11-15T07:45:12;5.80;99.90
46217;DHT22;47258;59.424;13.482;2022-11-15T07:47:39;5.80;99.90
46217;DHT22;47258;59.424;13.482;2022-11-15T07:50:06;5.80;99.90
46217;DHT22;47258;59.424;13.482;2022-11-15T07:52:33;5.80;99.90
46217;DHT22;47258;59.424;13.482;2022-11-15T07:55:00;5.80;99.90
46217;DHT22;47258;59.424;13.482;2022-11-15T07:57:29;5.80;99.90
46217;DHT22;47258;59.424;13.482;2022-11-15T07:59:56;5.80;99.90
46217;DHT22;47258;59.424;13.482;2022-11-15T08:02:24;5.80;99.90
46217;DHT22;47258;59.424;13.482;2022-11-15T08:04:52;5.80;99.90
46217;DHT22;47258;59.424;13.482;2022-11-15T08:07:19;5.80;99.90
46217;DHT22;47258;59.424;13.482;2022-11-15T08:09:46;5.80;99.90
46217;DHT22;47258;59.424;13.482;2022-11-15T08:12:14;5.80;99.90
46217;DHT22;47258;59.424;13.482;2022-11-15T08:14:41;5.80;99.90
46217;DHT22;47258;59.424;13.482;2022-11-15T08:17:07;5.80;99.90
46217;DHT22;47258;59.424;13.482;2022-11-15T08:19:36;5.80;99.90
46217;DHT22;47258;59.424;13.482;2022-11-15T08:22:03;5.80;99.90
46217;DHT22;47258;59.424;13.482;2022-11-15T08:24:30;5.80;99.90
46217;DHT22;47258;59.424;13.482;2022-11-15T08:26:57;5.80;99.90
46217;DHT22;47258;59.424;13.482;2022-11-15T08:29:23;5.80;99.90
46217;DHT22;47258;59.424;13.482;2022-11-15T08:31:50;5.90;99.90
46217;DHT22;47258;59.424;13.482;2022-11-15T08:34:17;5.80;99.90
46217;DHT22;47258;59.424;13.482;2022-11-15T08:36:45;5.90;99.90
46217;DHT22;47258;59.424;13.482;2022-11-15T08:39:12;5.90;99.90
46217;DHT22;47258;59.424;13.482;2022-11-15T08:41:39;5.90;99.90
46217;DHT22;47258;59.424;13.482;2022-11-15T08:44:06;6.00;99.90
46217;DHT22;47258;59.424;13.482;2022-11-15T08:46:33;6.00;99.90
46217;DHT22;47258;59.424;13.482;2022-11-15T08:49:00;6.00;99.90
46217;DHT22;47258;59.424;13.482;2022-11-15T08:51:27;6.00;99.90
46217;DHT22;47258;59.424;13.482;2022-11-15T08:53:55;6.00;99.90
46217;DHT22;47258;59.424;13.482;2022-11-15T08:56:22;6.00;99.90
46217;DHT22;47258;59.424;13.482;2022-11-15T08:58:49;6.10;99.90
46217;DHT22;47258;59.424;13.482;2022-11-15T09:01:17;6.10;99.90
46217;DHT22;47258;59.424;13.482;2022-11-15T09:03:44;6.10;99.90
46217;DHT22;47258;59.424;13.482;2022-11-15T09:06:12;6.10;99.90
46217;DHT22;47258;59.424;13.482;2022-11-15T09:08:39;6.10;99.90
46217;DHT22;47258;59.424;13.482;2022-11-15T09:11:08;6.10;99.90
46217;DHT22;47258;59.424;13.482;2022-11-15T09:13:36;6.10;99.90
46217;DHT22;47258;59.424;13.482;2022-11-15T09:16:04;6.20;99.90
46217;DHT22;47258;59.424;13.482;2022-11-15T09:18:31;6.20;99.90
46217;DHT22;47258;59.424;13.482;2022-11-15T09:20:59;6.20;99.90
46217;DHT22;47258;59.424;13.482;2022-11-15T09:23:26;6.20;99.90
46217;DHT22;47258;59.424;13.482;2022-11-15T09:25:58;6.20;99.90
46217;DHT22;47258;59.424;13.482;2022-11-15T09:28:27;6.20;99.90
46217;DHT22;47258;59.424;13.482;2022-11-15T09:30:56;6.20;99.90
46217;DHT22;47258;59.424;13.482;2022-11-15T09:33:24;6.20;99.90
46217;DHT22;47258;59.424;13.482;2022-11-15T09:35:51;6.20;99.90
46217;DHT22;47258;59.424;13.482;2022-11-15T09:38:18;6.20;99.90
46217;DHT22;47258;59.424;13.482;2022-11-15T09:40:49;6.20;99.90
46217;DHT22;47258;59.424;13.482;2022-11-15T09:43:35;6.20;99.90
46217;DHT22;47258;59.424;13.482;2022-11-15T09:46:15;6.20;99.90
46217;DHT22;47258;59.424;13.482;2022-11-15T09:48:53;6.20;99.90
46217;DHT22;47258;59.424;13.482;2022-11-15T09:51:26;6.20;99.90
46217;DHT22;47258;59.424;13.482;2022-11-15T09:54:00;6.20;99.90
46217;DHT22;47258;59.424;13.482;2022-11-15T09:56:31;6.20;99.90
46217;DHT22;47258;59.424;13.482;2022-11-15T09:59:13;6.20;99.90
46217;DHT22;47258;59.424;13.482;2022-11-15T10:01:49;6.30;99.90
46217;DHT22;47258;59.424;13.482;2022-11-15T10:04:21;6.30;99.90
46217;DHT22;47258;59.424;13.482;2022-11-15T10:06:53;6.30;99.90
46217;DHT22;47258;59.424;13.482;2022-11-15T10:09:24;6.30;99.90
46217;DHT22;47258;59.424;13.482;2022-11-15T10:11:52;6.30;99.90
46217;DHT22;47258;59.424;13.482;2022-11-15T10:14:22;6.30;99.90
46217;DHT22;47258;59.424;13.482;2022-11-15T10:20:07;6.40;99.90
46217;DHT22;47258;59.424;13.482;2022-11-15T10:22:40;6.30;99.90
46217;DHT22;47258;59.424;13.482;2022-11-15T10:25:17;6.30;99.90
46217;DHT22;47258;59.424;13.482;2022-11-15T10:27:50;6.20;99.90
46217;DHT22;47258;59.424;13.482;2022-11-15T10:30:19;6.10;99.90
46217;DHT22;47258;59.424;13.482;2022-11-15T10:32:47;6.00;99.90
46217;DHT22;47258;59.424;13.482;2022-11-15T10:35:20;6.00;99.90
46217;DHT22;47258;59.424;13.482;2022-11-15T10:37:48;5.90;99.90
46217;DHT22;47258;59.424;13.482;2022-11-15T10:40:18;5.80;99.90
46217;DHT22;47258;59.424;13.482;2022-11-15T10:42:45;5.80;99.90
46217;DHT22;47258;59.424;13.482;2022-11-15T10:45:28;5.80;99.90
46217;DHT22;47258;59.424;13.482;2022-11-15T10:48:20;5.70;99.90
46217;DHT22;47258;59.424;13.482;2022-11-15T10:50:49;5.70;99.90
46217;DHT22;47258;59.424;13.482;2022-11-15T10:53:21;5.70;99.90
46217;DHT22;47258;59.424;13.482;2022-11-15T10:55:51;5.70;99.90
46217;DHT22;47258;59.424;13.482;2022-11-15T10:58:31;5.70;99.90
46217;DHT22;47258;59.424;13.482;2022-11-15T11:01:14;5.70;99.90
46217;DHT22;47258;59.424;13.482;2022-11-15T11:03:43;5.70;99.90
46217;DHT22;47258;59.424;13.482;2022-11-15T11:06:13;5.70;99.90
46217;DHT22;47258;59.424;13.482;2022-11-15T11:08:41;5.70;99.90
46217;DHT22;47258;59.424;13.482;2022-11-15T11:11:19;5.70;99.90
46217;DHT22;47258;59.424;13.482;2022-11-15T11:13:46;5.70;99.90
46217;DHT22;47258;59.424;13.482;2022-11-15T11:16:41;5.70;99.90
46217;DHT22;47258;59.424;13.482;2022-11-15T11:19:19;5.80;99.90
46217;DHT22;47258;59.424;13.482;2022-11-15T11:21:55;5.80;99.90
46217;DHT22;47258;59.424;13.482;2022-11-15T11:24:32;5.70;99.90
46217;DHT22;47258;59.424;13.482;2022-11-15T11:27:17;5.70;99.90
46217;DHT22;47258;59.424;13.482;2022-11-15T11:29:56;5.70;99.90
46217;DHT22;47258;59.424;13.482;2022-11-15T11:32:39;5.70;99.90
46217;DHT22;47258;59.424;13.482;2022-11-15T11:35:13;5.80;99.90
46217;DHT22;47258;59.424;13.482;2022-11-15T11:37:46;5.80;99.90
46217;DHT22;47258;59.424;13.482;2022-11-15T11:40:26;5.80;99.90
46217;DHT22;47258;59.424;13.482;2022-11-15T11:42:58;5.80;99.90
46217;DHT22;47258;59.424;13.482;2022-11-15T11:45:44;5.80;99.90
46217;DHT22;47258;59.424;13.482;2022-11-15T11:48:23;5.90;99.90
46217;DHT22;47258;59.424;13.482;2022-11-15T11:50:52;5.80;99.90
46217;DHT22;47258;59.424;13.482;2022-11-15T11:53:25;5.90;99.90
46217;DHT22;47258;59.424;13.482;2022-11-15T11:55:55;5.90;99.90
46217;DHT22;47258;59.424;13.482;2022-11-15T11:58:29;5.90;99.90
46217;DHT22;47258;59.424;13.482;2022-11-15T12:01:05;5.90;99.90
46217;DHT22;47258;59.424;13.482;2022-11-15T12:03:41;5.80;99.90
46217;DHT22;47258;59.424;13.482;2022-11-15T12:06:21;5.90;99.90
46217;DHT22;47258;59.424;13.482;2022-11-15T12:08:52;5.90;99.90
46217;DHT22;47258;59.424;13.482;2022-11-15T12:11:22;5.90;99.90
46217;DHT22;47258;59.424;13.482;2022-11-15T12:13:55;5.90;99.90
46217;DHT22;47258;59.424;13.482;2022-11-15T12:16:27;5.90;99.90
46217;DHT22;47258;59.424;13.482;2022-11-15T12:18:58;5.90;99.90
46217;DHT22;47258;59.424;13.482;2022-11-15T12:21:36;5.90;99.90
46217;DHT22;47258;59.424;13.482;2022-11-15T12:24:11;5.90;99.90
46217;DHT22;47258;59.424;13.482;2022-11-15T12:26:42;5.90;99.90
46217;DHT22;47258;59.424;13.482;2022-11-15T12:29:16;5.90;99.90
46217;DHT22;47258;59.424;13.482;2022-11-15T12:31:48;5.90;99.90
46217;DHT22;47258;59.424;13.482;2022-11-15T12:34:36;5.90;99.90
46217;DHT22;47258;59.424;13.482;2022-11-15T12:40:24;5.90;99.90
46217;DHT22;47258;59.424;13.482;2022-11-15T12:45:47;5.80;99.90
46217;DHT22;47258;59.424;13.482;2022-11-15T12:57:40;5.80;99.90
46217;DHT22;47258;59.424;13.482;2022-11-15T13:06:09;5.80;
46217;DHT22;47258;59.424;13.482;2022-11-15T13:08:49;5.80;99.90
46217;DHT22;47258;59.424;13.482;2022-11-15T13:14:51;5.80;99.90
46217;DHT22;47258;59.424;13.482;2022-11-15T13:17:35;5.80;99.90
46217;DHT22;47258;59.424;13.482;2022-11-15T13:20:21;5.80;99.90
46217;DHT22;47258;59.424;13.482;2022-11-15T13:22:49;5.80;99.90
46217;DHT22;47258;59.424;13.482;2022-11-15T13:28:31;5.80;99.90
46217;DHT22;47258;59.424;13.482;2022-11-15T13:31:01;5.80;99.90
46217;DHT22;47258;59.424;13.482;2022-11-15T13:33:33;5.80;99.90
46217;DHT22;47258;59.424;13.482;2022-11-15T13:36:02;5.80;99.90
46217;DHT22;47258;59.424;13.482;2022-11-15T13:38:31;5.80;99.90
46217;DHT22;47258;59.424;13.482;2022-11-15T13:41:00;5.90;99.90
46217;DHT22;47258;59.424;13.482;2022-11-15T13:43:36;5.90;99.90
46217;DHT22;47258;59.424;13.482;2022-11-15T13:46:11;5.80;99.90
46217;DHT22;47258;59.424;13.482;2022-11-15T13:48:39;5.90;99.90
46217;DHT22;47258;59.424;13.482;2022-11-15T13:51:09;5.90;99.90
46217;DHT22;47258;59.424;13.482;2022-11-15T13:53:39;5.80;99.90
46217;DHT22;47258;59.424;13.482;2022-11-15T13:56:07;5.80;99.90
46217;DHT22;47258;59.424;13.482;2022-11-15T13:58:37;5.80;99.90
46217;DHT22;47258;59.424;13.482;2022-11-15T14:01:05;5.80;99.90
46217;DHT22;47258;59.424;13.482;2022-11-15T14:03:38;5.80;99.90
46217;DHT22;47258;59.424;13.482;2022-11-15T14:06:09;5.80;99.90
46217;DHT22;47258;59.424;13.482;2022-11-15T14:08:38;5.80;99.90
46217;DHT22;47258;59.424;13.482;2022-11-15T14:11:08;5.80;99.90
46217;DHT22;47258;59.424;13.482;2022-11-15T14:13:36;5.70;99.90
46217;DHT22;47258;59.424;13.482;2022-11-15T14:16:17;5.70;99.90
46217;DHT22;47258;59.424;13.482;2022-11-15T14:18:47;5.70;99.90
46217;DHT22;47258;59.424;13.482;2022-11-15T14:21:15;5.60;99.90
46217;DHT22;47258;59.424;13.482;2022-11-15T14:23:42;5.60;99.90
46217;DHT22;47258;59.424;13.482;2022-11-15T14:26:26;5.60;99.90
46217;DHT22;47258;59.424;13.482;2022-11-15T14:28:54;5.60;99.90
46217;DHT22;47258;59.424;13.482;2022-11-15T14:31:21;5.50;99.90
46217;DHT22;47258;59.424;13.482;2022-11-15T14:33:49;5.40;99.90
46217;DHT22;47258;59.424;13.482;2022-11-15T14:36:18;5.40;99.90
46217;DHT22;47258;59.424;13.482;2022-11-15T14:38:46;5.40;99.90
46217;DHT22;47258;59.424;13.482;2022-11-15T14:41:21;5.30;99.90
46217;DHT22;47258;59.424;13.482;2022-11-15T14:43:49;5.30;99.90
46217;DHT22;47258;59.424;13.482;2022-11-15T14:46:16;5.30;99.90
46217;DHT22;47258;59.424;13.482;2022-11-15T14:48:43;5.40;99.90
46217;DHT22;47258;59.424;13.482;2022-11-15T14:51:14;5.40;99.90
46217;DHT22;47258;59.424;13.482;2022-11-15T14:53:42;5.40;99.90
46217;DHT22;47258;59.424;13.482;2022-11-15T14:56:10;5.40;99.90
46217;DHT22;47258;59.424;13.482;2022-11-15T14:58:37;5.40;99.90
46217;DHT22;47258;59.424;13.482;2022-11-15T15:01:10;5.40;99.90
46217;DHT22;47258;59.424;13.482;2022-11-15T15:03:39;5.50;99.90
46217;DHT22;47258;59.424;13.482;2022-11-15T15:06:05;5.50;99.90
46217;DHT22;47258;59.424;13.482;2022-11-15T15:08:35;5.50;99.90
46217;DHT22;47258;59.424;13.482;2022-11-15T15:11:06;5.50;99.90
46217;DHT22;47258;59.424;13.482;2022-11-15T15:13:35;5.50;99.90
46217;DHT22;47258;59.424;13.482;2022-11-15T15:16:02;5.50;99.90
46217;DHT22;47258;59.424;13.482;2022-11-15T15:18:29;5.50;99.90
46217;DHT22;47258;59.424;13.482;2022-11-15T15:20:57;5.60;99.90
46217;DHT22;47258;59.424;13.482;2022-11-15T15:23:28;5.50;99.90
46217;DHT22;47258;59.424;13.482;2022-11-15T15:25:57;5.50;99.90
46217;DHT22;47258;59.424;13.482;2022-11-15T15:28:25;5.50;99.90
46217;DHT22;47258;59.424;13.482;2022-11-15T15:30:52;5.50;99.90
46217;DHT22;47258;59.424;13.482;2022-11-15T15:33:19;5.60;99.90
46217;DHT22;47258;59.424;13.482;2022-11-15T15:35:46;5.60;99.90
46217;DHT22;47258;59.424;13.482;2022-11-15T15:38:13;5.60;99.90
46217;DHT22;47258;59.424;13.482;2022-11-15T15:40:40;5.60;99.90
46217;DHT22;47258;59.424;13.482;2022-11-15T15:43:09;5.60;99.90
46217;DHT22;47258;59.424;13.482;2022-11-15T15:45:37;5.60;99.90
46217;DHT22;47258;59.424;13.482;2022-11-15T15:48:04;5.60;99.90
46217;DHT22;47258;59.424;13.482;2022-11-15T15:50:33;5.60;99.90
46217;DHT22;47258;59.424;13.482;2022-11-15T15:53:02;5.60;99.90
46217;DHT22;47258;59.424;13.482;2022-11-15T15:55:29;5.60;99.90
46217;DHT22;47258;59.424;13.482;2022-11-15T15:57:56;5.60;99.90
46217;DHT22;47258;59.424;13.482;2022-11-15T16:00:25;5.70;99.90
46217;DHT22;47258;59.424;13.482;2022-11-15T16:02:52;5.60;99.90
46217;DHT22;47258;59.424;13.482;2022-11-15T16:05:19;5.60;99.90
46217;DHT22;47258;59.424;13.482;2022-11-15T16:07:47;5.60;99.90
46217;DHT22;47258;59.424;13.482;2022-11-15T16:10:20;5.60;99.90
46217;DHT22;47258;59.424;13.482;2022-11-15T16:12:48;5.70;99.90
46217;DHT22;47258;59.424;13.482;2022-11-15T16:15:15;5.60;99.90
46217;DHT22;47258;59.424;13.482;2022-11-15T16:17:45;5.70;99.90
46217;DHT22;47258;59.424;13.482;2022-11-15T16:20:29;5.70;99.90
46217;DHT22;47258;59.424;13.482;2022-11-15T16:22:56;5.70;99.90